createdAt,value
2023-04-11T00:00:31.614Z,12.46
2023-04-11T00:03:01.811Z,12.20
2023-04-11T00:05:33.183Z,12.18
2023-04-11T00:08:03.140Z,12.21
2023-04-11T00:10:35.420Z,11.84
2023-04-11T00:13:07.497Z,11.89
2023-04-11T00:15:37.642Z,12.45
2023-04-11T00:18:07.761Z,11.89
2023-04-11T00:20:37.496Z,11.88
2023-04-11T00:23:08.902Z,12.27
2023-04-11T00:25:41.379Z,12.00
2023-04-11T00:28:11.046Z,12.29
2023-04-11T00:30:41.525Z,11.28
2023-04-11T00:33:11.261Z,11.56
2023-04-11T00:35:41.066Z,11.96
2023-04-11T00:38:11.109Z,12.23
2023-04-11T00:40:43.469Z,11.88
2023-04-11T00:43:13.393Z,11.76
2023-04-11T00:45:43.208Z,11.17
2023-04-11T00:48:13.602Z,11.25
2023-04-11T00:50:44.836Z,11.74
2023-04-11T00:53:15.624Z,11.45
2023-04-11T00:55:48.252Z,11.30
2023-04-11T00:58:19.768Z,11.16
2023-04-11T01:00:51.768Z,11.20
2023-04-11T01:03:22.943Z,11.29
2023-04-11T01:05:55.122Z,11.04
2023-04-11T01:08:25.748Z,10.82
2023-04-11T01:10:58.289Z,11.50
2023-04-11T01:13:28.564Z,11.60
2023-04-11T01:15:58.741Z,11.31
2023-04-11T01:18:28.505Z,11.27
2023-04-11T01:20:58.319Z,10.61
2023-04-11T01:23:31.405Z,10.58
2023-04-11T01:26:02.110Z,10.34
2023-04-11T01:28:31.801Z,10.45
2023-04-11T01:31:01.536Z,11.01
2023-04-11T01:33:31.441Z,10.91
2023-04-11T01:36:01.555Z,11.16
2023-04-11T01:38:33.865Z,10.75
2023-04-11T01:41:03.961Z,11.04
2023-04-11T01:43:33.695Z,11.15
2023-04-11T01:46:03.659Z,11.50
2023-04-11T01:48:36.539Z,11.41
2023-04-11T01:51:08.849Z,11.35
2023-04-11T01:53:41.229Z,10.98
2023-04-11T01:56:12.196Z,10.79
2023-04-11T01:58:41.882Z,11.08
2023-04-11T02:01:13.463Z,11.34
2023-04-11T02:03:43.320Z,10.39
2023-04-11T02:06:13.059Z,10.60
2023-04-11T02:08:45.337Z,10.68
2023-04-11T02:11:15.071Z,10.79
2023-04-11T02:13:44.708Z,10.63
2023-04-11T02:16:18.393Z,10.52
2023-04-11T02:18:49.282Z,10.43
2023-04-11T02:21:18.968Z,10.45
2023-04-11T02:23:51.453Z,10.37
2023-04-11T02:26:21.192Z,10.55
2023-04-11T02:28:50.845Z,10.53
2023-04-11T02:31:21.203Z,10.44
2023-04-11T02:33:50.929Z,10.52
2023-04-11T02:36:22.152Z,10.40
2023-04-11T02:38:54.581Z,10.24
2023-04-11T02:41:24.498Z,10.32
2023-04-11T02:43:54.210Z,10.27
2023-04-11T02:46:25.077Z,10.26
2023-04-11T02:48:54.934Z,10.31
2023-04-11T02:51:24.830Z,10.31
2023-04-11T02:53:57.588Z,10.27
2023-04-11T02:56:27.411Z,10.56
2023-04-11T02:58:59.772Z,10.38
2023-04-11T03:01:30.821Z,10.44
2023-04-11T03:04:00.740Z,10.69
2023-04-11T03:06:41.086Z,10.55
2023-04-11T03:09:13.707Z,10.68
2023-04-11T03:11:46.807Z,10.75
2023-04-11T03:14:17.764Z,10.67
2023-04-11T03:16:50.076Z,10.64
2023-04-11T03:19:19.881Z,10.32
2023-04-11T03:21:49.509Z,10.34
2023-04-11T03:24:22.522Z,10.25
2023-04-11T03:26:53.089Z,10.24
2023-04-11T03:29:22.744Z,10.10
2023-04-11T03:32:07.605Z,10.02
2023-04-11T03:34:38.885Z,9.97
2023-04-11T03:37:11.012Z,9.92
2023-04-11T03:39:44.185Z,10.10
2023-04-11T03:42:14.221Z,10.11
2023-04-11T03:44:44.380Z,9.91
2023-04-11T03:47:14.627Z,9.90
2023-04-11T03:49:46.157Z,9.81
2023-04-11T03:52:18.051Z,9.90
2023-04-11T03:54:52.741Z,9.81
2023-04-11T03:57:22.453Z,9.82
2023-04-11T03:59:52.142Z,9.89
2023-04-11T04:02:22.047Z,9.77
2023-04-11T04:04:58.996Z,9.72
2023-04-11T04:07:32.958Z,9.84
2023-04-11T04:10:17.982Z,9.93
2023-04-11T04:12:52.390Z,9.83
2023-04-11T04:15:24.490Z,9.89
2023-04-11T04:17:54.839Z,9.90
2023-04-11T04:20:44.302Z,9.75
2023-04-11T04:23:14.476Z,9.66
2023-04-11T04:26:13.330Z,9.76
2023-04-11T04:28:47.556Z,9.76
2023-04-11T04:31:25.851Z,9.75
2023-04-11T04:34:08.769Z,9.76
2023-04-11T04:36:48.053Z,9.95
2023-04-11T04:39:25.552Z,9.96
2023-04-11T04:42:01.483Z,10.04
2023-04-11T04:44:37.821Z,10.02
2023-04-11T04:47:15.256Z,10.08
2023-04-11T04:49:44.992Z,10.22
2023-04-11T04:52:15.000Z,10.26
2023-04-11T04:54:44.965Z,10.24
2023-04-11T04:57:17.381Z,10.24
2023-04-11T04:59:47.968Z,10.11
2023-04-11T05:02:18.405Z,10.32
2023-04-11T05:04:50.462Z,10.09
2023-04-11T05:07:21.018Z,10.09
2023-04-11T05:09:54.022Z,10.07
2023-04-11T05:12:30.171Z,10.12
2023-04-11T05:15:05.421Z,10.03
2023-04-11T05:17:35.930Z,9.99
2023-04-11T05:20:07.150Z,9.92
2023-04-11T05:22:38.097Z,10.01
2023-04-11T05:25:11.792Z,9.94
2023-04-11T05:27:46.262Z,9.90
2023-04-11T05:30:16.897Z,9.86
2023-04-11T05:32:48.267Z,9.90
2023-04-11T05:35:18.287Z,9.87
2023-04-11T05:37:52.398Z,9.89
2023-04-11T05:40:22.353Z,10.00
2023-04-11T05:42:54.727Z,9.93
2023-04-11T05:45:24.493Z,9.58
2023-04-11T05:47:54.552Z,9.72
2023-04-11T05:50:24.594Z,9.69
2023-04-11T05:52:54.360Z,9.64
2023-04-11T05:55:24.004Z,8.36
2023-04-11T05:57:56.231Z,7.94
2023-04-11T06:00:28.656Z,7.82
2023-04-11T06:02:58.938Z,7.62
2023-04-11T06:05:31.766Z,7.69
2023-04-11T06:08:02.263Z,7.58
2023-04-11T06:10:33.074Z,7.62
2023-04-11T06:13:05.576Z,7.88
2023-04-11T06:15:35.371Z,7.85
2023-04-11T06:18:05.208Z,7.81
2023-04-11T06:20:35.151Z,8.16
2023-04-11T06:23:04.791Z,7.75
2023-04-11T06:25:34.445Z,8.28
2023-04-11T06:28:06.836Z,8.13
2023-04-11T06:30:36.559Z,8.38
2023-04-11T06:33:06.420Z,8.30
2023-04-11T06:35:36.362Z,8.64
2023-04-11T06:38:06.130Z,9.70
2023-04-11T06:40:35.850Z,9.56
2023-04-11T06:43:08.104Z,9.38
2023-04-11T06:45:38.361Z,10.11
2023-04-11T06:48:09.038Z,10.28
2023-04-11T06:50:41.903Z,10.99
2023-04-11T06:53:11.571Z,10.84
2023-04-11T06:55:41.295Z,10.62
2023-04-11T06:58:13.550Z,10.13
2023-04-11T07:00:43.272Z,10.33
2023-04-11T07:03:14.147Z,11.39
2023-04-11T07:05:43.912Z,12.71
2023-04-11T07:08:13.590Z,11.78
2023-04-11T07:10:43.259Z,12.20
2023-04-11T07:13:15.597Z,13.23
2023-04-11T07:15:45.248Z,12.65
2023-04-11T07:18:15.115Z,12.07
2023-04-11T07:20:48.727Z,12.33
2023-04-11T07:23:18.350Z,12.04
2023-04-11T07:25:49.458Z,11.35
2023-04-11T07:28:22.318Z,10.92
2023-04-11T07:30:52.075Z,10.59
2023-04-11T07:33:21.838Z,9.42
2023-04-11T07:35:51.638Z,8.49
2023-04-11T07:38:27.569Z,8.33
2023-04-11T07:40:57.062Z,7.77
2023-04-11T07:43:30.734Z,8.15
2023-04-11T07:46:01.774Z,8.29
2023-04-11T07:48:33.404Z,8.66
2023-04-11T07:51:03.148Z,8.68
2023-04-11T07:53:33.795Z,8.96
2023-04-11T07:56:03.510Z,10.02
2023-04-11T07:58:35.788Z,10.08
2023-04-11T08:01:05.748Z,9.31
2023-04-11T08:03:35.581Z,8.67
2023-04-11T08:06:05.493Z,8.64
2023-04-11T08:08:35.190Z,8.27
2023-04-11T08:11:04.833Z,8.21
2023-04-11T08:13:37.070Z,8.06
2023-04-11T08:16:09.790Z,7.71
2023-04-11T08:18:42.339Z,7.42
2023-04-11T08:21:13.684Z,7.45
2023-04-11T08:23:43.435Z,7.48
2023-04-11T08:26:13.604Z,7.67
2023-04-11T08:28:45.816Z,7.56
2023-04-11T08:31:15.702Z,7.75
2023-04-11T08:33:45.546Z,8.53
2023-04-11T08:36:15.886Z,9.08
2023-04-11T08:38:45.606Z,9.11
2023-04-11T08:41:15.341Z,9.18
2023-04-11T08:43:48.428Z,9.17
2023-04-11T08:46:18.652Z,9.39
2023-04-11T08:48:48.496Z,9.11
2023-04-11T08:51:24.634Z,9.10
2023-04-11T08:53:58.181Z,9.31
2023-04-11T08:56:28.395Z,9.42
2023-04-11T08:59:00.802Z,9.43
2023-04-11T09:01:32.647Z,9.64
2023-04-11T09:04:05.418Z,9.34
2023-04-11T09:06:37.081Z,9.17
2023-04-11T09:09:08.334Z,9.22
2023-04-11T09:11:57.036Z,9.53
2023-04-11T09:14:29.826Z,9.35
2023-04-11T09:17:01.301Z,9.51
2023-04-11T09:19:32.352Z,9.79
2023-04-11T09:22:05.036Z,9.38
2023-04-11T09:24:35.789Z,9.32
2023-04-11T09:27:10.688Z,9.39
2023-04-11T09:29:45.699Z,9.53
2023-04-11T09:32:31.198Z,9.72
2023-04-11T09:35:11.563Z,9.93
2023-04-11T09:37:46.930Z,9.58
2023-04-11T09:40:18.515Z,9.58
2023-04-11T09:42:49.923Z,9.54
2023-04-11T09:45:24.354Z,9.68
2023-04-11T09:47:55.856Z,9.61
2023-04-11T09:50:26.804Z,9.83
2023-04-11T09:52:59.286Z,9.69
2023-04-11T09:55:29.484Z,9.72
2023-04-11T09:57:59.145Z,9.79
2023-04-11T10:00:32.696Z,9.54
2023-04-11T10:03:02.807Z,9.52
2023-04-11T10:05:33.058Z,9.61
2023-04-11T10:08:07.180Z,9.47
2023-04-11T10:10:38.480Z,9.54
2023-04-11T10:13:40.152Z,9.60
2023-04-11T10:16:17.035Z,9.68
2023-04-11T10:19:17.110Z,9.69
2023-04-11T10:21:46.907Z,10.17
2023-04-11T10:24:18.134Z,10.52
2023-04-11T10:26:52.872Z,10.28
2023-04-11T10:29:53.243Z,10.86
2023-04-11T10:32:28.740Z,10.92
2023-04-11T10:35:23.655Z,11.01
2023-04-11T10:37:53.389Z,11.08
2023-04-11T10:40:24.336Z,11.29
2023-04-11T10:42:54.068Z,11.15
2023-04-11T10:45:28.365Z,11.65
2023-04-11T10:48:13.048Z,11.21
2023-04-11T10:50:46.588Z,11.33
2023-04-11T10:53:37.544Z,10.87
2023-04-11T10:56:08.205Z,10.94
2023-04-11T10:58:39.870Z,10.93
2023-04-11T11:01:37.099Z,10.76
2023-04-11T11:04:15.749Z,11.00
2023-04-11T11:06:56.450Z,10.96
2023-04-11T11:09:28.922Z,11.07
2023-04-11T11:12:09.297Z,11.71
2023-04-11T11:14:39.547Z,11.69
2023-04-11T11:17:09.912Z,11.54
2023-04-11T11:19:46.773Z,11.11
2023-04-11T11:22:25.982Z,10.88
2023-04-11T11:24:56.200Z,10.68
2023-04-11T11:27:27.287Z,10.58
2023-04-11T11:29:56.993Z,10.63
2023-04-11T11:32:29.035Z,10.79
2023-04-11T11:35:01.543Z,10.79
2023-04-11T11:37:31.602Z,10.63
2023-04-11T11:40:01.486Z,10.50
2023-04-11T11:42:31.297Z,10.59
2023-04-11T11:45:18.887Z,10.77
2023-04-11T11:47:49.642Z,10.77
2023-04-11T11:50:35.058Z,11.11
2023-04-11T11:53:15.787Z,11.03
2023-04-11T11:55:46.118Z,11.30
2023-04-11T11:58:16.551Z,12.05
2023-04-11T12:00:46.174Z,12.70
2023-04-11T12:03:21.227Z,12.59
2023-04-11T12:05:56.204Z,12.99
2023-04-11T12:08:27.394Z,12.88
2023-04-11T12:10:57.024Z,12.96
2023-04-11T12:13:28.182Z,12.71
2023-04-11T12:15:59.386Z,12.17
2023-04-11T12:18:30.710Z,12.31
2023-04-11T12:21:02.955Z,12.76
2023-04-11T12:23:32.687Z,12.82
2023-04-11T12:26:02.868Z,12.60
2023-04-11T12:28:32.591Z,12.49
2023-04-11T12:31:02.393Z,12.74
2023-04-11T12:33:32.028Z,12.62
2023-04-11T12:36:04.497Z,12.19
2023-04-11T12:38:35.345Z,12.10
2023-04-11T12:41:30.283Z,11.85
2023-04-11T12:43:54.801Z,11.42
2023-04-11T12:46:24.765Z,11.51
2023-04-11T12:48:54.788Z,11.33
2023-04-11T12:51:27.668Z,11.48
2023-04-11T12:53:57.351Z,11.39
2023-04-11T12:56:27.123Z,11.03
2023-04-11T12:58:57.169Z,10.68
2023-04-11T13:01:27.476Z,10.45
2023-04-11T13:03:57.428Z,10.61
2023-04-11T13:06:30.207Z,10.94
2023-04-11T13:09:00.155Z,11.18
2023-04-11T13:11:29.828Z,11.75
2023-04-11T13:13:59.479Z,11.79
2023-04-11T13:16:29.218Z,12.20
2023-04-11T13:18:59.077Z,12.31
2023-04-11T13:21:31.787Z,12.25
2023-04-11T13:24:01.655Z,12.38
2023-04-11T13:26:31.387Z,12.36
2023-04-11T13:29:01.135Z,12.20
2023-04-11T13:31:30.903Z,11.92
2023-04-11T13:34:02.351Z,11.99
2023-04-11T13:36:35.775Z,12.10
2023-04-11T13:39:06.168Z,11.79
2023-04-11T13:41:35.898Z,12.07
2023-04-11T13:44:05.630Z,12.16
2023-04-11T13:46:35.365Z,11.99
2023-04-11T13:49:06.260Z,11.42
2023-04-11T13:51:38.538Z,10.99
2023-04-11T13:54:10.903Z,11.12
2023-04-11T13:56:40.616Z,11.24
2023-04-11T13:59:10.330Z,11.07
2023-04-11T14:01:40.095Z,11.22
2023-04-11T14:04:10.054Z,11.50
2023-04-11T14:06:43.445Z,12.08
2023-04-11T14:09:13.122Z,12.53
2023-04-11T14:11:43.998Z,12.90
2023-04-11T14:14:13.670Z,12.80
2023-04-11T14:16:43.492Z,12.80
2023-04-11T14:19:13.405Z,12.81
2023-04-11T14:21:45.838Z,12.69
2023-04-11T14:24:15.590Z,12.67
2023-04-11T14:26:45.242Z,12.11
2023-04-11T14:29:14.903Z,12.43
2023-04-11T14:31:44.811Z,12.52
2023-04-11T14:34:14.614Z,12.10
2023-04-11T14:36:47.028Z,12.13
2023-04-11T14:39:16.977Z,12.08
2023-04-11T14:41:46.668Z,12.36
2023-04-11T14:44:16.920Z,12.34
2023-04-11T14:46:46.553Z,12.91
2023-04-11T14:49:16.217Z,13.08
2023-04-11T14:51:48.510Z,12.79
2023-04-11T14:54:18.589Z,11.57
2023-04-11T14:56:48.401Z,11.59
2023-04-11T14:59:18.352Z,11.15
2023-04-11T15:01:48.115Z,10.82
2023-04-11T15:04:18.158Z,10.21
2023-04-11T15:06:50.518Z,10.13
2023-04-11T15:09:21.547Z,10.08
2023-04-11T15:11:51.789Z,10.00
2023-04-11T15:14:23.805Z,9.87
2023-04-11T15:16:53.489Z,9.79
2023-04-11T15:19:23.168Z,9.57
2023-04-11T15:21:55.720Z,9.72
2023-04-11T15:24:25.686Z,9.61
2023-04-11T15:26:55.389Z,9.63
2023-04-11T15:29:25.629Z,9.38
2023-04-11T15:31:55.303Z,9.40
2023-04-11T15:34:25.041Z,9.37
2023-04-11T15:36:57.891Z,8.32
2023-04-11T15:39:28.101Z,8.15
2023-04-11T15:41:57.788Z,7.81
2023-04-11T15:44:27.521Z,7.88
2023-04-11T15:46:57.242Z,7.66
2023-04-11T15:49:26.925Z,7.64
2023-04-11T15:51:59.268Z,7.60
2023-04-11T15:54:28.995Z,7.62
2023-04-11T15:56:58.678Z,7.99
2023-04-11T15:59:28.354Z,8.33
2023-04-11T16:01:58.177Z,8.68
2023-04-11T16:04:29.934Z,8.60
2023-04-11T16:07:02.487Z,8.10
2023-04-11T16:09:32.159Z,8.27
2023-04-11T16:26:14.610Z,8.08
2023-04-11T16:28:44.274Z,8.47
2023-04-11T16:31:15.404Z,8.55
2023-04-11T16:33:45.458Z,8.42
2023-04-11T16:36:16.949Z,8.54
2023-04-11T16:38:47.437Z,8.29
2023-04-11T16:41:20.910Z,7.69
2023-04-11T16:43:50.825Z,7.48
2023-04-11T16:46:21.131Z,7.24
2023-04-11T16:48:50.998Z,8.00
2023-04-11T16:51:21.608Z,8.22
2023-04-11T16:53:53.371Z,7.36
2023-04-11T16:56:27.505Z,7.49
2023-04-11T16:58:58.731Z,7.56
2023-04-11T17:01:28.495Z,7.71
2023-04-11T17:03:58.461Z,8.17
2023-04-11T17:06:28.266Z,8.56
2023-04-11T17:08:58.283Z,8.39
2023-04-11T17:11:30.558Z,8.90
2023-04-11T17:14:00.268Z,8.48
2023-04-11T17:16:30.004Z,8.30
2023-04-11T17:18:59.662Z,8.04
2023-04-11T17:21:29.448Z,7.81
2023-04-11T17:23:59.232Z,7.45
2023-04-11T17:26:31.548Z,7.37
2023-04-11T17:29:01.174Z,7.47
2023-04-11T17:31:30.894Z,7.21
2023-04-11T17:34:00.741Z,7.04
2023-04-11T17:36:31.056Z,7.10
2023-04-11T17:39:01.196Z,7.01
2023-04-11T17:41:33.477Z,6.99
2023-04-11T17:44:03.130Z,7.20
2023-04-11T17:46:32.824Z,7.26
2023-04-11T17:49:02.485Z,7.01
2023-04-11T17:51:32.194Z,6.94
2023-04-11T17:54:01.826Z,6.56
2023-04-11T17:56:34.618Z,6.48
2023-04-11T17:59:04.275Z,6.38
2023-04-11T18:01:34.730Z,6.42
2023-04-11T18:04:07.745Z,6.45
2023-04-11T18:06:37.510Z,6.59
2023-04-11T18:09:07.723Z,6.51
2023-04-11T18:11:42.110Z,6.52
2023-04-11T18:14:11.854Z,6.39
2023-04-11T18:16:41.654Z,6.38
2023-04-11T18:19:11.283Z,6.31
2023-04-11T18:21:41.793Z,6.64
2023-04-11T18:24:11.742Z,6.71
2023-04-11T18:26:44.026Z,6.24
2023-04-11T18:29:13.684Z,6.23
2023-04-11T18:31:43.372Z,5.97
2023-04-11T18:34:13.571Z,6.59
2023-04-11T18:36:43.746Z,6.36
2023-04-11T18:39:14.065Z,6.61
2023-04-11T18:41:46.959Z,6.04
2023-04-11T18:44:17.399Z,6.12
2023-04-11T18:46:47.187Z,6.44
2023-04-11T18:49:18.000Z,6.23
2023-04-11T18:51:47.885Z,6.39
2023-04-11T18:54:17.509Z,6.59
2023-04-11T18:56:53.112Z,6.92
2023-04-11T18:59:28.937Z,6.75
2023-04-11T19:01:59.527Z,6.44
2023-04-11T19:04:30.114Z,6.56
2023-04-11T19:06:59.968Z,7.19
2023-04-11T19:09:30.336Z,7.91
2023-04-11T19:12:02.746Z,7.57
2023-04-11T19:14:32.443Z,7.66
2023-04-11T19:17:02.369Z,6.93
2023-04-11T19:19:32.451Z,6.43
2023-04-11T19:22:02.157Z,6.55
2023-04-11T19:24:32.427Z,6.09
2023-04-11T19:27:05.763Z,5.99
2023-04-11T19:29:35.540Z,6.09
2023-04-11T19:32:05.242Z,5.94
2023-04-11T19:34:35.226Z,5.66
2023-04-11T19:37:05.805Z,6.21
2023-04-11T19:39:38.410Z,5.90
2023-04-11T19:42:12.050Z,6.08
2023-04-11T19:44:41.810Z,5.61
2023-04-11T19:47:11.500Z,5.96
2023-04-11T19:49:41.278Z,6.74
2023-04-11T19:52:11.105Z,5.00
2023-04-11T19:54:41.201Z,6.13
2023-04-11T19:57:13.449Z,6.04
2023-04-11T19:59:43.110Z,5.07
2023-04-11T20:02:12.995Z,5.47
2023-04-11T20:04:43.239Z,6.12
2023-04-11T20:07:13.247Z,6.55
2023-04-11T20:09:43.027Z,5.38
2023-04-11T20:12:15.242Z,5.03
2023-04-11T20:14:45.051Z,5.97
2023-04-11T20:17:15.141Z,5.39
2023-04-11T20:19:45.053Z,5.34
2023-04-11T20:22:18.553Z,5.58
2023-04-11T20:24:48.342Z,5.95
2023-04-11T20:27:20.902Z,6.28
2023-04-11T20:29:50.539Z,6.33
2023-04-11T20:32:20.255Z,6.19
2023-04-11T20:34:50.028Z,6.22
2023-04-11T20:37:22.427Z,5.76
2023-04-11T20:39:53.074Z,6.02
2023-04-11T20:42:25.963Z,5.89
2023-04-11T20:44:57.884Z,5.55
2023-04-11T20:47:27.673Z,4.29
2023-04-11T20:49:57.733Z,4.07
2023-04-11T20:52:27.363Z,4.18
2023-04-11T20:54:56.990Z,3.39
2023-04-11T20:57:30.759Z,3.30
2023-04-11T21:00:00.859Z,3.30
2023-04-11T21:02:32.540Z,3.28
2023-04-11T21:05:02.391Z,3.34
2023-04-11T21:07:32.588Z,3.38
2023-04-11T21:10:02.575Z,3.06
2023-04-11T21:12:34.977Z,3.27
2023-04-11T21:15:05.515Z,3.63
2023-04-11T21:17:37.435Z,3.54
2023-04-11T21:20:11.295Z,4.66
2023-04-11T21:22:40.980Z,5.01
2023-04-11T21:25:11.970Z,5.06
2023-04-11T21:27:44.275Z,5.50
2023-04-11T21:30:15.154Z,5.19
2023-04-11T21:32:44.836Z,4.50
2023-04-11T21:35:14.951Z,4.02
2023-04-11T21:37:46.461Z,3.59
2023-04-11T21:40:17.507Z,3.43
2023-04-11T21:42:50.036Z,3.18
2023-04-11T21:45:19.964Z,3.16
2023-04-11T21:47:49.633Z,2.78
2023-04-11T21:50:19.665Z,2.66
2023-04-11T21:52:49.738Z,2.51
2023-04-11T21:55:19.615Z,2.98
2023-04-11T21:57:51.869Z,2.45
2023-04-11T22:00:22.309Z,2.61
2023-04-11T22:02:52.146Z,3.17
2023-04-11T22:05:22.301Z,3.28
2023-04-11T22:07:53.149Z,2.41
2023-04-11T22:10:30.469Z,2.52
2023-04-11T22:13:10.296Z,2.66
2023-04-11T22:15:40.274Z,2.65
2023-04-11T22:18:11.445Z,2.34
2023-04-11T22:20:43.861Z,2.32
2023-04-11T22:23:13.924Z,2.25
2023-04-11T22:25:43.620Z,2.54
2023-04-11T22:28:18.544Z,2.15
2023-04-11T22:30:48.293Z,2.14
2023-04-11T22:33:18.269Z,2.21
2023-04-11T22:35:48.194Z,2.70
2023-04-11T22:38:18.563Z,2.34
2023-04-11T22:40:48.221Z,2.07
2023-04-11T22:43:20.518Z,1.63
2023-04-11T22:45:50.261Z,1.54
2023-04-11T22:48:20.043Z,2.59
2023-04-11T22:50:53.114Z,3.01
2023-04-11T22:53:25.157Z,2.53
2023-04-11T22:55:54.839Z,2.93
2023-04-11T22:58:27.242Z,2.00
2023-04-11T23:00:56.974Z,2.05
2023-04-11T23:03:28.052Z,1.99
2023-04-11T23:05:57.703Z,2.81
2023-04-11T23:08:27.329Z,2.51
2023-04-11T23:10:56.965Z,2.16
2023-04-11T23:13:29.324Z,2.09
2023-04-11T23:15:59.166Z,2.11
2023-04-11T23:18:28.805Z,1.91
2023-04-11T23:20:58.436Z,2.05
2023-04-11T23:23:28.287Z,2.43
2023-04-11T23:25:58.812Z,2.56
2023-04-11T23:28:31.018Z,2.13
2023-04-11T23:31:00.740Z,1.91
2023-04-11T23:33:31.136Z,1.71
2023-04-11T23:36:00.804Z,1.78
2023-04-11T23:38:30.483Z,1.57
2023-04-11T23:41:00.215Z,1.50
2023-04-11T23:43:32.434Z,1.62
2023-04-11T23:46:02.169Z,2.58
2023-04-11T23:48:32.350Z,2.42
2023-04-11T23:51:02.318Z,2.99
2023-04-11T23:53:32.114Z,3.07
2023-04-11T23:56:01.955Z,2.04
2023-04-11T23:58:34.503Z,2.07
